createdAt,value
2023-03-12T00:00:03.115Z,0.9
2023-03-12T00:01:03.153Z,0.9
2023-03-12T00:02:03.120Z,0.9
2023-03-12T00:03:03.104Z,0.9
2023-03-12T00:04:03.253Z,0.9
2023-03-12T00:05:03.143Z,0.9
2023-03-12T00:06:10.264Z,0.9
2023-03-12T00:07:03.146Z,0.9
2023-03-12T00:08:03.119Z,0.9
2023-03-12T00:09:03.126Z,0.9
2023-03-12T00:10:03.121Z,0.9
2023-03-12T00:11:03.120Z,0.9
2023-03-12T00:12:03.171Z,0.9
2023-03-12T00:13:03.132Z,0.9
2023-03-12T00:14:03.165Z,0.9
2023-03-12T00:15:03.144Z,0.9
2023-03-12T00:16:03.259Z,0.9
2023-03-12T00:17:03.206Z,0.9
2023-03-12T00:18:03.147Z,0.8
2023-03-12T00:19:03.132Z,0.8
2023-03-12T00:20:03.116Z,0.8
2023-03-12T00:21:03.106Z,0.8
2023-03-12T00:22:03.161Z,0.8
2023-03-12T00:23:03.115Z,0.8
2023-03-12T00:24:03.112Z,0.8
2023-03-12T00:25:03.168Z,0.8
2023-03-12T00:26:03.152Z,0.8
2023-03-12T00:27:03.145Z,0.8
2023-03-12T00:28:03.128Z,0.8
2023-03-12T00:29:03.162Z,0.8
2023-03-12T00:30:03.112Z,0.8
2023-03-12T00:31:03.163Z,0.8
2023-03-12T00:32:03.162Z,0.8
2023-03-12T00:33:03.152Z,0.8
2023-03-12T00:34:03.160Z,0.8
2023-03-12T00:35:03.174Z,0.8
2023-03-12T00:36:03.234Z,0.8
2023-03-12T00:37:03.148Z,0.8
2023-03-12T00:38:03.166Z,0.8
2023-03-12T00:39:03.148Z,0.8
2023-03-12T00:40:03.167Z,0.8
2023-03-12T00:41:03.108Z,0.8
2023-03-12T00:42:03.168Z,0.8
2023-03-12T00:43:03.143Z,0.8
2023-03-12T00:44:03.225Z,0.8
2023-03-12T00:45:03.141Z,0.8
2023-03-12T00:46:03.149Z,0.8
2023-03-12T00:47:03.162Z,0.8
2023-03-12T00:48:03.148Z,0.8
2023-03-12T00:49:03.143Z,0.8
2023-03-12T00:50:03.161Z,0.8
2023-03-12T00:51:03.143Z,0.8
2023-03-12T00:52:03.151Z,0.8
2023-03-12T00:53:03.161Z,0.8
2023-03-12T00:54:03.170Z,0.8
2023-03-12T00:55:03.158Z,0.8
2023-03-12T00:56:03.128Z,0.8
2023-03-12T00:57:03.150Z,0.8
2023-03-12T00:58:03.190Z,0.8
2023-03-12T00:59:03.166Z,0.8
2023-03-12T01:00:03.169Z,0.8
2023-03-12T01:01:03.314Z,0.8
2023-03-12T01:02:03.152Z,0.8
2023-03-12T01:03:03.153Z,0.8
2023-03-12T01:04:03.247Z,0.7
2023-03-12T01:05:03.246Z,0.7
2023-03-12T01:06:03.176Z,0.7
2023-03-12T01:07:03.183Z,0.7
2023-03-12T01:08:03.184Z,0.7
2023-03-12T01:09:03.179Z,0.7
2023-03-12T01:10:03.231Z,0.7
2023-03-12T01:11:03.160Z,0.7
2023-03-12T01:12:03.172Z,0.7
2023-03-12T01:13:03.172Z,0.7
2023-03-12T01:14:03.174Z,0.7
2023-03-12T01:15:03.234Z,0.7
2023-03-12T01:16:03.191Z,0.7
2023-03-12T01:17:03.205Z,0.7
2023-03-12T01:18:03.188Z,0.7
2023-03-12T01:19:03.171Z,0.7
2023-03-12T01:20:03.163Z,0.7
2023-03-12T01:21:03.171Z,0.7
2023-03-12T01:22:03.169Z,0.7
2023-03-12T01:23:03.180Z,0.7
2023-03-12T01:24:03.230Z,0.7
2023-03-12T01:25:03.178Z,0.7
2023-03-12T01:26:03.234Z,0.7
2023-03-12T01:27:03.180Z,0.7
2023-03-12T01:28:03.215Z,0.7
2023-03-12T01:29:03.203Z,0.7
2023-03-12T01:30:03.180Z,0.7
2023-03-12T01:31:03.176Z,0.7
2023-03-12T01:32:03.181Z,0.7
2023-03-12T01:33:03.156Z,0.7
2023-03-12T01:34:03.186Z,0.7
2023-03-12T01:35:03.181Z,0.7
2023-03-12T01:36:03.241Z,0.7
2023-03-12T01:37:03.195Z,0.5
2023-03-12T01:38:03.187Z,0.5
2023-03-12T01:39:03.183Z,0.5
2023-03-12T01:40:03.234Z,0.5
2023-03-12T01:41:03.173Z,0.5
2023-03-12T01:42:03.190Z,0.5
2023-03-12T01:43:03.183Z,0.5
2023-03-12T01:44:03.199Z,0.5
2023-03-12T01:45:03.204Z,0.5
2023-03-12T01:46:03.388Z,0.5
2023-03-12T01:47:03.204Z,0.5
2023-03-12T01:48:03.202Z,0.5
2023-03-12T01:49:03.184Z,0.5
2023-03-12T01:50:03.197Z,0.5
2023-03-12T01:51:03.186Z,0.5
2023-03-12T01:52:03.190Z,0.5
2023-03-12T01:53:03.193Z,0.5
2023-03-12T01:54:03.232Z,0.5
2023-03-12T01:55:03.212Z,0.5
2023-03-12T01:56:03.204Z,0.5
2023-03-12T01:57:03.174Z,0.5
2023-03-12T01:58:03.230Z,0.5
2023-03-12T01:59:03.180Z,0.5
2023-03-12T02:00:03.207Z,0.5
2023-03-12T02:01:03.282Z,0.5
2023-03-12T02:02:03.199Z,0.5
2023-03-12T02:03:03.174Z,0.5
2023-03-12T02:04:03.262Z,0.5
2023-03-12T02:05:03.259Z,0.5
2023-03-12T02:06:03.194Z,0.5
2023-03-12T02:07:03.196Z,0.5
2023-03-12T02:08:03.193Z,0.5
2023-03-12T02:09:03.181Z,0.5
2023-03-12T02:10:03.180Z,0.5
2023-03-12T02:11:03.252Z,0.5
2023-03-12T02:12:03.180Z,0.5
2023-03-12T02:13:03.272Z,0.5
2023-03-12T02:14:03.182Z,0.5
2023-03-12T02:15:03.231Z,0.5
2023-03-12T02:16:03.363Z,0.5
2023-03-12T02:17:03.253Z,0.5
2023-03-12T02:18:03.218Z,0.5
2023-03-12T02:19:03.212Z,0.5
2023-03-12T02:20:03.271Z,0.5
2023-03-12T02:21:03.226Z,0.5
2023-03-12T02:22:03.214Z,0.5
2023-03-12T02:23:03.221Z,0.5
2023-03-12T02:24:03.230Z,0
2023-03-12T02:25:03.227Z,0
2023-03-12T02:26:03.224Z,0
2023-03-12T02:27:03.210Z,0
2023-03-12T02:28:03.209Z,0
2023-03-12T02:29:03.227Z,0
2023-03-12T02:30:03.239Z,0
2023-03-12T02:31:03.232Z,0
2023-03-12T02:32:03.334Z,0
2023-03-12T02:33:03.221Z,0
2023-03-12T02:34:03.220Z,0
2023-03-12T02:35:03.286Z,0
2023-03-12T02:36:03.370Z,0
2023-03-12T02:37:03.217Z,0
2023-03-12T02:38:03.230Z,0
2023-03-12T02:39:03.225Z,0
2023-03-12T02:40:03.212Z,0
2023-03-12T02:41:03.225Z,0
2023-03-12T02:42:03.249Z,0
2023-03-12T02:43:03.227Z,0
2023-03-12T02:44:03.227Z,0
2023-03-12T02:45:03.191Z,0
2023-03-12T02:46:03.290Z,0
2023-03-12T02:47:03.235Z,0
2023-03-12T02:48:03.265Z,0
2023-03-12T02:49:03.275Z,0
2023-03-12T02:50:03.239Z,0
2023-03-12T02:51:03.196Z,0
2023-03-12T02:52:03.230Z,0
2023-03-12T02:53:03.249Z,0
2023-03-12T02:54:03.282Z,0
2023-03-12T02:55:03.238Z,-0.1
2023-03-12T02:56:03.205Z,-0.1
2023-03-12T02:57:03.223Z,-0.1
2023-03-12T02:58:03.237Z,-0.1
2023-03-12T02:59:04.457Z,-0.1
2023-03-12T03:00:03.251Z,-0.1
2023-03-12T03:01:03.275Z,-0.1
2023-03-12T03:02:03.243Z,-0.1
2023-03-12T03:03:03.516Z,-0.1
2023-03-12T03:04:03.355Z,-0.1
2023-03-12T03:05:03.294Z,-0.1
2023-03-12T03:06:03.267Z,-0.1
2023-03-12T03:07:03.259Z,-0.1
2023-03-12T03:08:03.230Z,-0.1
2023-03-12T03:09:03.206Z,-0.1
2023-03-12T03:10:03.243Z,-0.1
2023-03-12T03:11:03.253Z,-0.1
2023-03-12T03:12:03.253Z,-0.1
2023-03-12T03:13:03.225Z,-0.1
2023-03-12T03:14:03.249Z,-0.1
2023-03-12T03:15:03.248Z,-0.1
2023-03-12T03:16:03.328Z,-0.1
2023-03-12T03:17:03.256Z,-0.1
2023-03-12T03:18:03.255Z,-0.1
2023-03-12T03:19:03.274Z,-0.1
2023-03-12T03:20:03.244Z,-0.1
2023-03-12T03:21:03.252Z,-0.2
2023-03-12T03:22:03.244Z,-0.2
2023-03-12T03:23:03.276Z,-0.2
2023-03-12T03:24:03.253Z,-0.2
2023-03-12T03:25:03.282Z,-0.2
2023-03-12T03:26:03.255Z,-0.2
2023-03-12T03:27:03.253Z,-0.2
2023-03-12T03:28:03.279Z,-0.2
2023-03-12T03:29:03.307Z,-0.2
2023-03-12T03:30:03.344Z,-0.2
2023-03-12T03:31:03.310Z,-0.2
2023-03-12T03:32:03.298Z,-0.3
2023-03-12T03:33:03.267Z,-0.3
2023-03-12T03:34:03.251Z,-0.3
2023-03-12T03:35:03.262Z,-0.3
2023-03-12T03:36:03.332Z,-0.3
2023-03-12T03:37:03.250Z,-0.3
2023-03-12T03:38:03.258Z,-0.3
2023-03-12T03:39:03.255Z,-0.3
2023-03-12T03:40:03.267Z,-0.3
2023-03-12T03:41:03.281Z,-0.3
2023-03-12T03:42:03.274Z,-0.3
2023-03-12T03:43:03.273Z,-0.3
2023-03-12T03:44:03.275Z,-0.3
2023-03-12T03:45:03.254Z,-0.3
2023-03-12T03:46:03.360Z,-0.3
2023-03-12T03:47:03.326Z,-0.3
2023-03-12T03:48:03.273Z,-0.3
2023-03-12T03:49:03.275Z,-0.3
2023-03-12T03:50:03.279Z,-0.3
2023-03-12T03:51:03.282Z,-0.3
2023-03-12T03:52:03.267Z,-0.3
2023-03-12T03:53:03.295Z,-0.3
2023-03-12T03:54:03.262Z,-0.3
2023-03-12T03:55:03.317Z,-0.7
2023-03-12T03:56:03.274Z,-0.7
2023-03-12T03:57:03.298Z,-0.7
2023-03-12T03:58:03.313Z,-0.7
2023-03-12T03:59:03.289Z,-0.7
2023-03-12T04:00:03.921Z,-0.7
2023-03-12T04:01:03.273Z,-0.7
2023-03-12T04:02:03.280Z,-0.7
2023-03-12T04:03:03.331Z,-0.7
2023-03-12T04:04:03.305Z,-0.7
2023-03-12T04:05:03.287Z,-0.7
2023-03-12T04:06:03.406Z,-0.7
2023-03-12T04:07:03.280Z,-0.7
2023-03-12T04:08:03.328Z,-0.7
2023-03-12T04:09:03.285Z,-0.7
2023-03-12T04:10:03.297Z,-0.7
2023-03-12T04:11:03.276Z,-0.7
2023-03-12T04:12:03.264Z,-0.8
2023-03-12T04:13:03.280Z,-0.8
2023-03-12T04:14:03.271Z,-0.8
2023-03-12T04:15:03.280Z,-0.8
2023-03-12T04:16:03.348Z,-0.8
2023-03-12T04:17:03.307Z,-0.8
2023-03-12T04:18:03.297Z,-0.8
2023-03-12T04:19:03.286Z,-0.8
2023-03-12T04:20:03.344Z,-0.8
2023-03-12T04:21:03.297Z,-0.8
2023-03-12T04:22:03.294Z,-0.9
2023-03-12T04:23:03.373Z,-0.9
2023-03-12T04:24:03.297Z,-0.9
2023-03-12T04:25:03.294Z,-0.9
2023-03-12T04:26:03.345Z,-0.9
2023-03-12T04:27:03.307Z,-0.9
2023-03-12T04:28:03.309Z,-0.9
2023-03-12T04:29:03.296Z,-0.9
2023-03-12T04:30:03.314Z,-0.9
2023-03-12T04:31:03.368Z,-0.9
2023-03-12T04:32:03.303Z,-0.9
2023-03-12T04:33:03.304Z,-0.9
2023-03-12T04:34:03.341Z,-0.9
2023-03-12T04:35:03.297Z,-0.9
2023-03-12T04:36:03.377Z,-0.9
2023-03-12T04:37:03.342Z,-0.9
2023-03-12T04:38:03.300Z,-1.1
2023-03-12T04:39:03.300Z,-1.1
2023-03-12T04:40:03.311Z,-1.1
2023-03-12T04:41:03.317Z,-1.1
2023-03-12T04:42:03.321Z,-1.1
2023-03-12T04:43:03.328Z,-1.1
2023-03-12T04:44:03.330Z,-1.1
2023-03-12T04:45:03.368Z,-1.1
2023-03-12T04:46:03.338Z,-1.1
2023-03-12T04:47:03.403Z,-1
2023-03-12T04:48:03.319Z,-1
2023-03-12T04:49:03.325Z,-1
2023-03-12T04:50:03.320Z,-1
2023-03-12T04:51:03.354Z,-1
2023-03-12T04:52:03.320Z,-1
2023-03-12T04:53:03.354Z,-1
2023-03-12T04:54:03.319Z,-1
2023-03-12T04:55:03.316Z,-1
2023-03-12T04:56:03.359Z,-1
2023-03-12T04:57:03.333Z,-1
2023-03-12T04:58:03.336Z,-1
2023-03-12T04:59:03.339Z,-1
2023-03-12T05:00:03.331Z,-1
2023-03-12T05:01:03.364Z,-1
2023-03-12T05:02:03.336Z,-1
2023-03-12T05:03:03.429Z,-1
2023-03-12T05:04:03.388Z,-1
2023-03-12T05:05:03.330Z,-1
2023-03-12T05:06:03.368Z,-1
2023-03-12T05:07:03.342Z,-1
2023-03-12T05:08:03.324Z,-1
2023-03-12T05:09:03.355Z,-1
2023-03-12T05:10:03.379Z,-1
2023-03-12T05:11:03.335Z,-1
2023-03-12T05:12:03.339Z,-1
2023-03-12T05:13:03.410Z,-1
2023-03-12T05:14:03.340Z,-1
2023-03-12T05:15:03.338Z,-1
2023-03-12T05:16:03.422Z,-1
2023-03-12T05:17:03.371Z,-1
2023-03-12T05:18:03.371Z,-1
2023-03-12T05:19:03.389Z,-1
2023-03-12T05:20:03.340Z,-1
2023-03-12T05:21:03.382Z,-1
2023-03-12T05:22:03.399Z,-1
2023-03-12T05:23:03.357Z,-1
2023-03-12T05:24:03.349Z,-1
2023-03-12T05:25:03.363Z,-1
2023-03-12T05:26:03.391Z,-1
2023-03-12T05:27:03.356Z,-1
2023-03-12T05:28:03.362Z,-1
2023-03-12T05:29:03.361Z,-1
2023-03-12T05:30:03.387Z,-1
2023-03-12T05:31:03.434Z,-1
2023-03-12T05:32:03.366Z,-0.8
2023-03-12T05:33:03.385Z,-0.8
2023-03-12T05:34:03.388Z,-0.8
2023-03-12T05:35:03.386Z,-0.8
2023-03-12T05:36:03.449Z,-0.8
2023-03-12T05:37:03.385Z,-0.8
2023-03-12T05:38:03.384Z,-0.8
2023-03-12T05:39:03.389Z,-0.6
2023-03-12T05:40:03.396Z,-0.6
2023-03-12T05:41:03.409Z,-0.5
2023-03-12T05:42:03.395Z,-0.5
2023-03-12T05:43:03.394Z,-0.5
2023-03-12T05:44:03.408Z,-0.5
2023-03-12T05:45:03.446Z,-0.4
2023-03-12T05:46:03.443Z,-0.4
2023-03-12T05:47:03.389Z,-0.4
2023-03-12T05:48:03.402Z,-0.4
2023-03-12T05:49:03.446Z,-0.4
2023-03-12T05:50:03.395Z,-0.4
2023-03-12T05:51:03.382Z,-0.4
2023-03-12T05:52:03.434Z,-0.4
2023-03-12T05:53:03.413Z,-0.4
2023-03-12T05:54:03.422Z,-0.4
2023-03-12T05:55:03.400Z,-0.4
2023-03-12T05:56:03.605Z,-0.4
2023-03-12T05:57:03.431Z,0.1
2023-03-12T05:58:03.392Z,0.1
2023-03-12T05:59:03.406Z,0.1
2023-03-12T06:00:03.461Z,0.1
2023-03-12T06:01:03.392Z,0.1
2023-03-12T06:02:03.422Z,0.1
2023-03-12T06:03:03.431Z,0.3
2023-03-12T06:04:03.412Z,0.3
2023-03-12T06:05:03.503Z,0.3
2023-03-12T06:06:03.437Z,0.3
2023-03-12T06:07:03.455Z,0.3
2023-03-12T06:08:03.414Z,0.3
2023-03-12T06:09:03.404Z,0.3
2023-03-12T06:10:03.457Z,0.3
2023-03-12T06:11:03.451Z,0.3
2023-03-12T06:12:03.408Z,0.3
2023-03-12T06:13:03.435Z,0.6
2023-03-12T06:14:03.413Z,0.6
2023-03-12T06:15:03.400Z,0.6
2023-03-12T06:16:03.396Z,0.6
2023-03-12T06:17:03.408Z,0.6
2023-03-12T06:18:03.556Z,0.6
2023-03-12T06:19:03.403Z,0.6
2023-03-12T06:20:03.425Z,0.6
2023-03-12T06:21:03.395Z,0.6
2023-03-12T06:22:03.436Z,0.6
2023-03-12T06:23:03.418Z,0.6
2023-03-12T06:24:03.414Z,0.6
2023-03-12T06:25:03.403Z,1
2023-03-12T06:26:03.413Z,1
2023-03-12T06:27:03.400Z,1
2023-03-12T06:28:03.448Z,1
2023-03-12T06:29:03.384Z,1
2023-03-12T06:30:03.409Z,1
2023-03-12T06:31:03.445Z,1
2023-03-12T06:32:03.412Z,1
2023-03-12T06:33:03.411Z,1.3
2023-03-12T06:34:03.448Z,1.3
2023-03-12T06:35:03.410Z,1.3
2023-03-12T06:36:03.412Z,1.3
2023-03-12T06:37:03.447Z,1.3
2023-03-12T06:38:03.420Z,1.3
2023-03-12T06:39:03.444Z,1.6
2023-03-12T06:40:03.424Z,1.6
2023-03-12T06:41:03.428Z,1.6
2023-03-12T06:42:03.421Z,1.6
2023-03-12T06:43:03.414Z,1.6
2023-03-12T06:44:03.461Z,1.6
2023-03-12T06:45:03.436Z,1.6
2023-03-12T06:46:03.523Z,1.6
2023-03-12T06:47:03.450Z,1.6
2023-03-12T06:48:03.460Z,1.6
2023-03-12T06:49:03.444Z,1.6
2023-03-12T06:50:03.451Z,1.6
2023-03-12T06:51:03.427Z,1.6
2023-03-12T06:52:03.615Z,1.6
2023-03-12T06:53:03.434Z,1.6
2023-03-12T06:54:03.439Z,1.6
2023-03-12T06:55:03.447Z,1.6
2023-03-12T06:56:03.436Z,2.1
2023-03-12T06:57:03.434Z,2.1
2023-03-12T06:58:03.442Z,2.1
2023-03-12T06:59:03.437Z,2.1
2023-03-12T07:00:03.513Z,2.1
2023-03-12T07:01:03.488Z,2.1
2023-03-12T07:02:03.493Z,2.1
2023-03-12T07:03:03.436Z,2.1
2023-03-12T07:04:03.439Z,2.1
2023-03-12T07:05:03.529Z,2.1
2023-03-12T07:06:03.482Z,2.1
2023-03-12T07:07:03.437Z,2.1
2023-03-12T07:08:03.476Z,2.1
2023-03-12T07:09:03.452Z,2.1
2023-03-12T07:10:03.476Z,2.1
2023-03-12T07:11:03.445Z,2.1
2023-03-12T07:12:03.445Z,2.6
2023-03-12T07:13:03.451Z,2.6
2023-03-12T07:14:03.487Z,2.6
2023-03-12T07:15:03.444Z,2.6
2023-03-12T07:16:03.529Z,2.6
2023-03-12T07:17:03.455Z,2.6
2023-03-12T07:18:03.452Z,2.6
2023-03-12T07:19:03.452Z,2.6
2023-03-12T07:20:03.449Z,2.6
2023-03-12T07:21:03.444Z,2.6
2023-03-12T07:22:03.496Z,2.6
2023-03-12T07:23:03.490Z,2.6
2023-03-12T07:24:03.534Z,2.6
2023-03-12T07:25:03.539Z,2.6
2023-03-12T07:26:03.491Z,2.6
2023-03-12T07:27:03.506Z,2.6
2023-03-12T07:28:03.456Z,2.6
2023-03-12T07:29:03.487Z,2.6
2023-03-12T07:30:03.495Z,2.6
2023-03-12T07:31:03.605Z,2.6
2023-03-12T07:32:03.447Z,2.6
2023-03-12T07:33:03.656Z,3.1
2023-03-12T07:34:03.669Z,3.1
2023-03-12T07:35:03.514Z,3.1
2023-03-12T07:36:03.611Z,3.1
2023-03-12T07:37:03.460Z,3.1
2023-03-12T07:38:03.555Z,3.1
2023-03-12T07:39:03.456Z,3.1
2023-03-12T07:40:03.521Z,3.1
2023-03-12T07:41:03.519Z,3.1
2023-03-12T07:42:03.548Z,3.1
2023-03-12T07:43:03.525Z,3.2
2023-03-12T07:44:03.484Z,3.2
2023-03-12T07:45:03.529Z,3.2
2023-03-12T07:46:03.444Z,3.2
2023-03-12T07:47:20.563Z,3.2
2023-03-12T07:48:03.600Z,3.2
2023-03-12T07:49:03.496Z,3.2
2023-03-12T07:50:03.571Z,3.2
2023-03-12T07:51:03.485Z,3.2
2023-03-12T07:52:03.547Z,3.2
2023-03-12T07:53:03.494Z,3.2
2023-03-12T07:54:03.536Z,3.2
2023-03-12T07:55:03.603Z,3.2
2023-03-12T07:56:03.579Z,3.2
2023-03-12T07:57:03.615Z,3.2
2023-03-12T07:58:03.555Z,3.2
2023-03-12T07:59:03.606Z,3.2
2023-03-12T08:00:03.537Z,3.2
2023-03-12T08:01:03.563Z,3.2
2023-03-12T08:02:03.664Z,3.2
2023-03-12T08:03:03.742Z,3.7
2023-03-12T08:04:03.684Z,3.7
2023-03-12T08:05:03.580Z,3.7
2023-03-12T08:06:03.581Z,3.7
2023-03-12T08:07:03.663Z,3.7
2023-03-12T08:08:03.509Z,3.7
2023-03-12T08:09:03.488Z,3.7
2023-03-12T08:10:03.578Z,3.7
2023-03-12T08:11:03.499Z,3.7
2023-03-12T08:12:03.558Z,3.7
2023-03-12T08:13:03.540Z,3.7
2023-03-12T08:14:03.469Z,3.7
2023-03-12T08:15:03.542Z,3.7
2023-03-12T08:16:03.630Z,4.2
2023-03-12T08:17:03.513Z,4.2
2023-03-12T08:18:03.503Z,4.2
2023-03-12T08:19:03.500Z,4.2
2023-03-12T08:20:03.507Z,4.2
2023-03-12T08:21:03.498Z,4.2
2023-03-12T08:22:03.511Z,4.2
2023-03-12T08:23:03.698Z,4.2
2023-03-12T08:24:03.506Z,4.2
2023-03-12T08:25:03.552Z,4.2
2023-03-12T08:26:03.491Z,4.2
2023-03-12T08:27:03.502Z,4.2
2023-03-12T08:28:03.501Z,4.2
2023-03-12T08:29:03.515Z,4.2
2023-03-12T08:30:03.547Z,4.5
2023-03-12T08:31:03.511Z,4.5
2023-03-12T08:32:05.003Z,4.5
2023-03-12T08:33:03.592Z,4.5
2023-03-12T08:34:03.531Z,4.5
2023-03-12T08:35:03.506Z,4.5
2023-03-12T08:36:03.636Z,4.5
2023-03-12T08:37:03.511Z,4.5
2023-03-12T08:38:03.526Z,4.8
2023-03-12T08:39:03.575Z,4.8
2023-03-12T08:40:03.534Z,4.8
2023-03-12T08:41:03.529Z,4.8
2023-03-12T08:42:03.528Z,4.8
2023-03-12T08:43:03.522Z,4.8
2023-03-12T08:44:03.548Z,4.8
2023-03-12T08:45:03.580Z,4.8
2023-03-12T08:46:03.657Z,4.8
2023-03-12T08:47:03.534Z,4.8
2023-03-12T08:48:03.527Z,4.8
2023-03-12T08:49:03.521Z,4.8
2023-03-12T08:50:03.553Z,4.8
2023-03-12T08:51:03.534Z,4.8
2023-03-12T08:52:03.555Z,4.8
2023-03-12T08:53:03.549Z,4.8
2023-03-12T08:54:03.550Z,4.8
2023-03-12T08:55:03.549Z,4.8
2023-03-12T08:56:03.541Z,4.8
2023-03-12T08:57:03.606Z,4.8
2023-03-12T08:58:03.547Z,4.8
2023-03-12T08:59:03.543Z,4.8
2023-03-12T09:00:03.593Z,4.8
2023-03-12T09:01:03.566Z,4.8
2023-03-12T09:02:03.567Z,4.8
2023-03-12T09:03:03.572Z,4.8
2023-03-12T09:04:03.689Z,4.8
2023-03-12T09:05:03.590Z,4.8
2023-03-12T09:06:03.572Z,4.8
2023-03-12T09:07:03.608Z,4.8
2023-03-12T09:08:03.567Z,4.8
2023-03-12T09:09:03.547Z,4.8
2023-03-12T09:10:03.561Z,5.3
2023-03-12T09:11:03.558Z,5.3
2023-03-12T09:12:03.554Z,5.3
2023-03-12T09:13:03.600Z,5.3
2023-03-12T09:15:04.755Z,5.3
2023-03-12T09:16:03.569Z,5.3
2023-03-12T09:17:03.707Z,5.3
2023-03-12T09:18:03.559Z,5.3
2023-03-12T09:19:03.599Z,5.3
2023-03-12T09:20:03.531Z,5.3
2023-03-12T09:21:03.570Z,5.3
2023-03-12T09:22:03.571Z,5.2
2023-03-12T09:23:03.576Z,5.2
2023-03-12T09:24:03.625Z,5.2
2023-03-12T09:25:03.627Z,5.2
2023-03-12T09:26:03.573Z,5.2
2023-03-12T09:27:04.596Z,5.4
2023-03-12T09:28:03.581Z,5.4
2023-03-12T09:29:03.610Z,5.4
2023-03-12T09:30:03.590Z,5.4
2023-03-12T09:31:03.625Z,5.4
2023-03-12T09:32:05.852Z,5.4
2023-03-12T09:33:03.602Z,5.4
2023-03-12T09:34:03.573Z,5.4
2023-03-12T09:35:03.622Z,5.4
2023-03-12T09:36:03.597Z,5.4
2023-03-12T09:37:03.576Z,5.4
2023-03-12T09:38:03.553Z,5.4
2023-03-12T09:39:03.545Z,5.4
2023-03-12T09:40:03.717Z,5.4
2023-03-12T09:41:03.575Z,5.4
2023-03-12T09:42:03.600Z,5.4
2023-03-12T09:43:03.593Z,5.4
2023-03-12T09:44:03.578Z,5.4
2023-03-12T09:45:03.598Z,5.4
2023-03-12T09:46:03.643Z,5.4
2023-03-12T09:47:03.653Z,5.4
2023-03-12T09:48:03.601Z,5.4
2023-03-12T09:49:03.598Z,5.4
2023-03-12T09:50:03.595Z,5.4
2023-03-12T09:51:03.620Z,5.4
2023-03-12T09:52:03.591Z,5.4
2023-03-12T09:53:03.607Z,5.4
2023-03-12T09:54:03.626Z,5.7
2023-03-12T09:55:03.595Z,5.7
2023-03-12T09:56:03.661Z,5.7
2023-03-12T09:57:03.586Z,5.7
2023-03-12T09:58:03.587Z,5.7
2023-03-12T09:59:03.590Z,5.7
2023-03-12T10:00:03.589Z,5.7
2023-03-12T10:01:03.601Z,5.7
2023-03-12T10:02:03.639Z,5.7
2023-03-12T10:03:03.679Z,5.7
2023-03-12T10:04:03.648Z,5.7
2023-03-12T10:05:03.729Z,5.7
2023-03-12T10:06:03.700Z,5.7
2023-03-12T10:07:03.613Z,5.7
2023-03-12T10:08:21.311Z,5.7
2023-03-12T10:09:03.606Z,5.7
2023-03-12T10:10:03.679Z,5.7
2023-03-12T10:11:03.605Z,5.7
2023-03-12T10:12:03.607Z,5.7
2023-03-12T10:13:03.605Z,6.2
2023-03-12T10:14:03.625Z,6.2
2023-03-12T10:15:03.605Z,6.2
2023-03-12T10:16:03.720Z,6.2
2023-03-12T10:17:03.629Z,6.2
2023-03-12T10:18:03.779Z,6.2
2023-03-12T10:19:03.690Z,6.2
2023-03-12T10:20:03.635Z,6.2
2023-03-12T10:21:03.637Z,6.2
2023-03-12T10:22:03.633Z,6.3
2023-03-12T10:23:03.599Z,6.3
2023-03-12T10:24:03.700Z,6.3
2023-03-12T10:25:03.658Z,6.3
2023-03-12T10:26:03.696Z,6.3
2023-03-12T10:27:03.633Z,6.3
2023-03-12T10:28:03.653Z,6.3
2023-03-12T10:29:03.677Z,6.3
2023-03-12T10:30:03.654Z,6.3
2023-03-12T10:31:03.709Z,6.3
2023-03-12T10:32:03.624Z,6.3
2023-03-12T10:33:03.642Z,6.3
2023-03-12T10:34:03.620Z,6.3
2023-03-12T10:35:03.655Z,6.3
2023-03-12T10:36:03.696Z,6.3
2023-03-12T10:37:03.636Z,6.3
2023-03-12T10:38:03.646Z,6.3
2023-03-12T10:39:03.641Z,6.3
2023-03-12T10:40:03.688Z,6.3
2023-03-12T10:41:03.650Z,6.3
2023-03-12T10:42:03.644Z,6.3
2023-03-12T10:43:03.664Z,6.3
2023-03-12T10:44:03.648Z,6.3
2023-03-12T10:45:03.636Z,6.3
2023-03-12T10:46:03.709Z,6.3
2023-03-12T10:47:03.651Z,6.3
2023-03-12T10:48:03.681Z,6.3
2023-03-12T10:49:03.667Z,6.7
2023-03-12T10:50:03.708Z,6.7
2023-03-12T10:51:03.655Z,6.7
2023-03-12T10:52:03.703Z,6.7
2023-03-12T10:53:03.660Z,6.7
2023-03-12T10:54:03.656Z,6.7
2023-03-12T10:55:03.660Z,6.7
2023-03-12T10:56:03.649Z,6.7
2023-03-12T10:57:03.659Z,6.7
2023-03-12T10:58:03.671Z,6.7
2023-03-12T10:59:03.620Z,6.7
2023-03-12T11:00:03.663Z,6.7
2023-03-12T11:01:03.653Z,6.7
2023-03-12T11:02:03.745Z,6.7
2023-03-12T11:03:03.739Z,6.7
2023-03-12T11:04:03.659Z,6.7
2023-03-12T11:05:03.661Z,6.7
2023-03-12T11:06:03.842Z,6.7
2023-03-12T11:07:03.619Z,6.7
2023-03-12T11:08:03.653Z,6.7
2023-03-12T11:09:16.174Z,6.7
2023-03-12T11:10:03.680Z,6.7
2023-03-12T11:11:03.648Z,6.7
2023-03-12T11:12:03.615Z,6.7
2023-03-12T11:13:03.694Z,6.7
2023-03-12T11:14:03.656Z,6.7
2023-03-12T11:15:03.656Z,6.7
2023-03-12T11:16:03.732Z,6.7
2023-03-12T11:17:03.649Z,6.7
2023-03-12T11:18:03.623Z,6.7
2023-03-12T11:19:03.742Z,6.7
2023-03-12T11:20:03.621Z,7.2
2023-03-12T11:21:03.623Z,7.2
2023-03-12T11:22:05.675Z,7.2
2023-03-12T11:23:03.619Z,7.2
2023-03-12T11:24:03.702Z,7.2
2023-03-12T11:25:03.661Z,7.3
2023-03-12T11:26:03.653Z,7.3
2023-03-12T11:27:03.659Z,7.3
2023-03-12T11:28:03.691Z,7.3
2023-03-12T11:29:03.660Z,7.3
2023-03-12T11:30:03.659Z,7.3
2023-03-12T11:31:03.718Z,7.3
2023-03-12T11:32:03.761Z,7.3
2023-03-12T11:33:03.647Z,7.3
2023-03-12T11:34:03.664Z,7.3
2023-03-12T11:35:03.674Z,7.3
2023-03-12T11:36:03.628Z,7.3
2023-03-12T11:37:03.618Z,7.3
2023-03-12T11:38:03.657Z,6.9
2023-03-12T11:39:03.627Z,6.9
2023-03-12T11:40:03.660Z,6.9
2023-03-12T11:41:03.660Z,6.9
2023-03-12T11:42:03.687Z,6.9
2023-03-12T11:43:03.676Z,6.9
2023-03-12T11:44:03.654Z,6.9
2023-03-12T11:45:03.819Z,6.9
2023-03-12T11:46:03.668Z,6.9
2023-03-12T11:47:03.666Z,6.9
2023-03-12T11:48:03.663Z,6.9
2023-03-12T11:49:03.673Z,6.9
2023-03-12T11:50:03.683Z,6.9
2023-03-12T11:51:03.681Z,6.9
2023-03-12T11:52:03.675Z,6.9
2023-03-12T11:53:03.660Z,6.9
2023-03-12T11:54:03.627Z,6.9
2023-03-12T11:55:03.688Z,6.9
2023-03-12T11:56:03.673Z,6.9
2023-03-12T11:57:03.678Z,6.9
2023-03-12T11:58:03.697Z,6.9
2023-03-12T11:59:03.707Z,6.9
2023-03-12T12:00:03.664Z,6.9
2023-03-12T12:01:03.687Z,6.9
2023-03-12T12:02:03.758Z,6.9
2023-03-12T12:03:03.687Z,6.9
2023-03-12T12:04:03.673Z,6.9
2023-03-12T12:05:03.714Z,6.9
2023-03-12T12:06:03.692Z,6.9
2023-03-12T12:07:03.704Z,6.9
2023-03-12T12:08:03.696Z,6.9
2023-03-12T12:09:03.656Z,6.9
2023-03-12T12:10:03.702Z,6.9
2023-03-12T12:11:03.664Z,6.9
2023-03-12T12:12:05.642Z,6.9
2023-03-12T12:13:03.696Z,6.9
2023-03-12T12:14:03.707Z,6.9
2023-03-12T12:15:03.643Z,6.9
2023-03-12T12:16:03.818Z,7.4
2023-03-12T12:17:03.697Z,7.4
2023-03-12T12:18:03.667Z,7.4
2023-03-12T12:19:04.670Z,7.4
2023-03-12T12:20:03.697Z,7.4
2023-03-12T12:21:03.668Z,7.4
2023-03-12T12:22:03.700Z,7.4
2023-03-12T12:23:03.685Z,7.4
2023-03-12T12:24:03.750Z,7.4
2023-03-12T12:25:03.684Z,7.4
2023-03-12T12:26:03.687Z,7.4
2023-03-12T12:27:03.690Z,7.4
2023-03-12T12:28:03.688Z,7.4
2023-03-12T12:29:03.689Z,7.4
2023-03-12T12:30:03.697Z,7.4
2023-03-12T12:31:03.670Z,7.4
2023-03-12T12:32:03.829Z,7.4
2023-03-12T12:33:03.690Z,7.4
2023-03-12T12:34:03.694Z,7.4
2023-03-12T12:35:03.708Z,7.4
2023-03-12T12:36:03.776Z,7.4
2023-03-12T12:37:03.692Z,7.4
2023-03-12T12:38:03.738Z,7.4
2023-03-12T12:39:03.700Z,7.4
2023-03-12T12:40:03.738Z,7.4
2023-03-12T12:41:03.723Z,7.4
2023-03-12T12:42:03.701Z,7.4
2023-03-12T12:43:03.695Z,7.4
2023-03-12T12:44:03.695Z,7.4
2023-03-12T12:45:03.692Z,7.4
2023-03-12T12:46:03.809Z,7.4
2023-03-12T12:47:03.719Z,7.4
2023-03-12T12:48:03.707Z,7.4
2023-03-12T12:49:03.700Z,7.4
2023-03-12T12:50:03.779Z,7.4
2023-03-12T12:51:03.762Z,7.4
2023-03-12T12:52:03.703Z,7.4
2023-03-12T12:53:03.724Z,7.4
2023-03-12T12:54:03.704Z,7.4
2023-03-12T12:55:03.750Z,7.4
2023-03-12T12:56:03.713Z,7.4
2023-03-12T12:57:03.702Z,7.4
2023-03-12T12:58:03.727Z,7.4
2023-03-12T12:59:03.728Z,7.4
2023-03-12T13:00:03.767Z,7.4
2023-03-12T13:01:03.752Z,7.4
2023-03-12T13:02:03.755Z,7.4
2023-03-12T13:03:03.765Z,7.4
2023-03-12T13:04:03.777Z,7.9
2023-03-12T13:05:03.732Z,7.9
2023-03-12T13:06:03.726Z,7.9
2023-03-12T13:07:03.723Z,7.9
2023-03-12T13:08:03.762Z,7.9
2023-03-12T13:09:03.706Z,7.9
2023-03-12T13:10:03.728Z,7.9
2023-03-12T13:11:16.588Z,7.9
2023-03-12T13:12:03.719Z,7.9
2023-03-12T13:13:03.741Z,7.9
2023-03-12T13:14:03.783Z,7.9
2023-03-12T13:15:03.772Z,7.9
2023-03-12T13:16:03.789Z,7.9
2023-03-12T13:17:03.751Z,7.9
2023-03-12T13:18:03.800Z,7.9
2023-03-12T13:19:03.838Z,7.9
2023-03-12T13:20:03.761Z,7.9
2023-03-12T13:21:03.755Z,7.9
2023-03-12T13:22:03.766Z,7.9
2023-03-12T13:23:03.758Z,7.9
2023-03-12T13:24:03.760Z,7.9
2023-03-12T13:25:03.825Z,7.9
2023-03-12T13:26:03.775Z,7.9
2023-03-12T13:27:03.715Z,7.9
2023-03-12T13:28:03.794Z,7.9
2023-03-12T13:29:12.319Z,7.9
2023-03-12T13:30:03.769Z,7.9
2023-03-12T13:31:03.914Z,7.9
2023-03-12T13:32:03.742Z,7.9
2023-03-12T13:33:03.766Z,7.9
2023-03-12T13:34:03.899Z,7.9
2023-03-12T13:35:03.814Z,7.9
2023-03-12T13:36:03.846Z,7.9
2023-03-12T13:37:03.757Z,7.9
2023-03-12T13:38:03.749Z,7.9
2023-03-12T13:39:03.811Z,7.9
2023-03-12T13:40:03.756Z,7.9
2023-03-12T13:41:03.729Z,7.9
2023-03-12T13:42:03.767Z,7.9
2023-03-12T13:43:03.795Z,7.9
2023-03-12T13:44:03.771Z,7.9
2023-03-12T13:45:03.787Z,7.9
2023-03-12T13:46:06.515Z,7.9